Time;durP1;ratioP1;P1;durP2;ratioP2;P2;SDS_P1;SDS_P2;PMS_P1;PMS_P2;Temp;Humidity;BMP_temperature;BMP_pressure;BME280_temperature;BME280_humidity;BME280_pressure;Samples;Min_cycle;Max_cycle;Signal;HPM_P1;HPM_P2
2023/06/23 00:01:17;;;;;;;8.15;2.30;;;;;;;21.40;75.71;97525.75;10540065;28;20090;-69
2023/06/23 00:06:37;;;;;;;8.38;2.17;;;;;;;21.33;76.09;97501.50;10612870;27;20051;-68
2023/06/23 00:11:58;;;;;;;7.90;2.13;;;;;;;21.28;76.11;97451.72;10609275;27;20039;-69
2023/06/23 00:17:20;;;;;;;10.00;2.80;;;;;;;21.13;77.48;97447.84;10608692;28;20055;-68
2023/06/23 00:22:42;;;;;;;6.07;2.53;;;;;;;21.11;77.78;97430.03;10608988;28;20039;-68
2023/06/23 00:28:03;;;;;;;7.03;2.78;;;;;;;21.06;77.54;97429.22;10608414;28;20492;-69
2023/06/23 00:33:23;;;;;;;5.50;2.30;;;;;;;20.95;79.38;97450.28;10608261;28;20438;-68
2023/06/23 00:38:45;;;;;;;7.03;1.85;;;;;;;20.95;79.74;97470.13;10623854;28;20165;-69
2023/06/23 00:44:07;;;;;;;7.38;2.47;;;;;;;20.99;80.56;97436.16;10593959;28;20054;-68
2023/06/23 00:49:28;;;;;;;7.27;2.00;;;;;;;20.98;80.23;97409.19;10593884;28;20122;-69
2023/06/23 00:54:49;;;;;;;8.05;2.22;;;;;;;20.94;80.29;97439.56;10593766;28;20074;-69
2023/06/23 01:00:20;;;;;;;9.43;2.25;;;;;;;20.94;80.46;97434.66;10607745;28;20123;-68
2023/06/23 01:05:41;;;;;;;6.10;1.63;;;;;;;20.84;80.80;97469.19;10586958;28;20104;-69
2023/06/23 01:11:09;;;;;;;7.30;1.85;;;;;;;20.82;80.83;97485.41;10551162;28;20073;-69
2023/06/23 01:16:32;;;;;;;7.07;2.30;;;;;;;20.77;81.47;97478.22;10551517;28;20115;-68
2023/06/23 01:22:11;;;;;;;10.73;2.53;;;;;;;20.70;81.77;97485.84;10554259;28;20082;-68
2023/06/23 01:28:25;;;;;;;9.82;2.55;;;;;;;20.70;82.15;97480.19;10560192;28;20050;-69
2023/06/23 01:33:49;;;;;;;15.48;3.47;;;;;;;20.60;81.31;97491.28;10548257;28;20067;-69
2023/06/23 01:39:13;;;;;;;7.22;2.92;;;;;;;20.38;83.17;97474.44;10572908;28;20040;-68
2023/06/23 01:44:35;;;;;;;10.87;3.03;;;;;;;20.33;85.37;97500.50;10558132;28;20048;-68
2023/06/23 01:49:58;;;;;;;7.00;2.45;;;;;;;20.22;85.89;97488.91;10571773;28;20823;-68
2023/06/23 01:55:18;;;;;;;7.57;2.08;;;;;;;20.12;86.61;97485.09;10557566;28;20115;-68
2023/06/23 02:00:39;;;;;;;9.30;2.10;;;;;;;20.07;87.63;97475.75;10557455;28;20115;-69
2023/06/23 02:05:59;;;;;;;7.85;1.98;;;;;;;20.05;87.49;97469.31;10582023;27;20098;-69
2023/06/23 02:11:22;;;;;;;7.00;1.85;;;;;;;20.07;87.09;97478.59;10585021;27;20142;-68
2023/06/23 02:16:43;;;;;;;6.45;2.15;;;;;;;20.05;87.28;97489.88;10599210;27;20122;-68
2023/06/23 02:22:03;;;;;;;8.30;1.85;;;;;;;20.14;87.42;97487.97;10598540;27;20082;-69
2023/06/23 02:27:24;;;;;;;10.05;1.58;;;;;;;20.07;87.31;97486.38;10584224;27;20067;-69
2023/06/23 02:32:48;;;;;;;5.80;1.80;;;;;;;20.11;87.54;97480.81;10597153;27;20114;-68
2023/06/23 02:38:09;;;;;;;5.32;1.90;;;;;;;20.09;86.59;97495.66;10598027;27;20070;-68
2023/06/23 02:43:32;;;;;;;6.38;1.88;;;;;;;20.05;87.09;97491.97;10597785;27;20071;-68
2023/06/23 02:48:54;;;;;;;5.90;1.87;;;;;;;19.90;87.64;97491.63;10597572;27;20378;-68
2023/06/23 02:54:17;;;;;;;5.30;1.92;;;;;;;19.95;87.86;97458.44;10597127;27;20039;-68
2023/06/23 02:59:38;;;;;;;;;;;;;;;20.07;88.38;97453.09;10569440;27;20518;-69
2023/06/23 03:04:59;;;;;;;6.22;1.90;;;;;;;20.11;87.29;97447.53;10594562;27;19958;-69
2023/06/23 03:10:19;;;;;;;5.95;1.58;;;;;;;20.11;86.97;97458.16;10568410;28;20450;-68
2023/06/23 03:15:40;;;;;;;6.32;1.88;;;;;;;20.05;86.82;97472.88;10554030;28;20108;-69
2023/06/23 03:21:03;;;;;;;4.78;1.55;;;;;;;20.02;86.58;97465.72;10583182;28;20071;-69
2023/06/23 03:26:24;;;;;;;7.22;1.50;;;;;;;19.96;86.55;97494.59;10553805;28;20118;-69
2023/06/23 03:31:44;;;;;;;4.40;1.75;;;;;;;19.92;85.82;97502.28;10553712;28;20115;-69
2023/06/23 03:37:06;;;;;;;5.25;1.50;;;;;;;19.94;86.10;97511.53;10553269;28;20189;-69
2023/06/23 03:42:27;;;;;;;6.38;1.75;;;;;;;19.99;86.05;97501.78;10567563;28;20079;-69
2023/06/23 03:47:48;;;;;;;6.75;1.70;;;;;;;20.02;86.00;97516.72;10552600;28;20067;-68
2023/06/23 03:53:08;;;;;;;7.40;1.90;;;;;;;20.11;86.19;97531.81;10552893;28;20055;-67
2023/06/23 03:58:29;;;;;;;4.93;1.77;;;;;;;20.16;85.59;97545.41;10566760;28;20062;-67
2023/06/23 04:03:50;;;;;;;5.30;1.73;;;;;;;20.20;85.79;97551.19;10559341;27;20086;-68
2023/06/23 04:09:12;;;;;;;6.75;2.38;;;;;;;20.29;85.62;97550.03;10609048;27;20055;-68
2023/06/23 04:14:32;;;;;;;10.40;1.98;;;;;;;20.38;85.15;97550.25;10594448;27;20119;-68
2023/06/23 04:19:56;;;;;;;6.60;2.33;;;;;;;20.39;84.19;97560.19;10594483;27;20462;-68
2023/06/23 04:25:18;;;;;;;5.53;1.83;;;;;;;20.42;84.55;97573.00;10623474;28;20532;-69
2023/06/23 04:30:39;;;;;;;10.10;2.30;;;;;;;20.52;84.47;97581.81;10594450;28;20089;-68
2023/06/23 04:36:06;;;;;;;7.18;2.17;;;;;;;20.69;84.04;97580.13;10579870;28;20088;-69
2023/06/23 04:41:27;;;;;;;7.07;2.63;;;;;;;20.98;82.68;97582.25;10594763;28;20111;-67
2023/06/23 04:46:48;;;;;;;7.13;2.85;;;;;;;21.13;80.81;97563.44;10594012;28;20066;-67
2023/06/23 04:52:09;;;;;;;9.50;2.70;;;;;;;21.12;79.83;97564.84;10593822;28;20088;-67
2023/06/23 04:57:31;;;;;;;6.63;2.72;;;;;;;21.07;79.83;97574.66;10598005;27;20039;-68
2023/06/23 05:02:53;;;;;;;6.03;2.85;;;;;;;21.38;79.42;97595.97;10616146;27;20078;-69
2023/06/23 05:08:13;;;;;;;10.57;3.20;;;;;;;21.66;78.09;97584.53;10601605;27;20043;-69
2023/06/23 05:13:34;;;;;;;12.93;3.03;;;;;;;21.91;76.48;97585.78;10600995;27;20114;-68
2023/06/23 05:18:55;;;;;;;14.23;3.83;;;;;;;22.40;74.77;97581.78;10587044;27;20158;-68
2023/06/23 05:24:16;;;;;;;12.63;3.45;;;;;;;22.86;73.74;97575.47;10601119;27;20067;-69
2023/06/23 05:29:40;;;;;;;8.57;2.50;;;;;;;23.02;71.25;97557.94;10600623;27;20062;-69
2023/06/23 05:35:02;;;;;;;7.15;2.53;;;;;;;23.52;69.24;97566.50;10600724;27;20039;-69
2023/06/23 05:40:23;;;;;;;7.03;2.72;;;;;;;23.49;68.81;97567.88;10586175;27;20074;-69
2023/06/23 05:45:44;;;;;;;5.57;2.22;;;;;;;24.06;67.02;97574.34;10614050;27;20511;-69
2023/06/23 05:51:09;;;;;;;7.72;2.20;;;;;;;24.58;64.18;97582.03;10613821;27;20067;-69
2023/06/23 05:56:40;;;;;;;5.82;1.52;;;;;;;24.79;61.97;97568.66;10585454;27;20050;-68
2023/06/23 06:02:00;;;;;;;6.20;1.73;;;;;;;25.58;59.47;97560.00;10599869;27;20036;-68
2023/06/23 06:07:24;;;;;;;4.28;1.23;;;;;;;25.92;56.42;97580.19;10570920;28;20150;-69
2023/06/23 06:12:45;;;;;;;6.40;1.50;;;;;;;25.76;56.82;97585.81;10570661;28;20127;-69
2023/06/23 06:18:11;;;;;;;7.30;1.15;;;;;;;25.55;56.01;97595.69;10570725;28;20120;-69
2023/06/23 06:23:35;;;;;;;5.20;1.00;;;;;;;25.88;54.56;97580.16;10570838;28;20458;-68
2023/06/23 06:28:56;;;;;;;5.85;1.10;;;;;;;26.03;54.22;97595.22;10555886;28;20565;-69
2023/06/23 06:34:16;;;;;;;3.20;1.00;;;;;;;25.63;53.88;97610.72;10583945;28;20067;-69
2023/06/23 06:39:37;;;;;;;5.43;0.80;;;;;;;26.12;53.45;97613.84;10569913;28;20170;-68
2023/06/23 06:44:58;;;;;;;3.03;0.85;;;;;;;27.23;51.02;97623.44;10555370;28;20511;-69
2023/06/23 06:50:19;;;;;;;3.47;0.90;;;;;;;27.43;48.82;97634.16;10583514;28;20067;-69
2023/06/23 06:55:41;;;;;;;3.47;1.10;;;;;;;27.41;49.75;97657.81;10568985;28;20043;-69
2023/06/23 07:01:03;;;;;;;2.17;0.85;;;;;;;27.05;49.22;97659.22;10569120;28;20040;-70
2023/06/23 07:06:25;;;;;;;3.03;0.70;;;;;;;27.58;48.13;97658.50;10568741;28;20123;-69
2023/06/23 07:11:49;;;;;;;1.10;0.52;;;;;;;28.66;46.78;97661.06;10568508;28;20742;-69
2023/06/23 07:17:10;;;;;;;2.58;0.80;;;;;;;28.99;45.00;97673.81;10582565;28;20557;-70
2023/06/23 07:22:33;;;;;;;5.43;0.70;;;;;;;27.48;45.61;97690.75;10582603;28;20489;-68
2023/06/23 07:27:54;;;;;;;2.30;0.70;;;;;;;25.91;48.34;97693.13;10567747;28;20063;-69
2023/06/23 07:33:14;;;;;;;2.90;0.60;;;;;;;25.83;50.07;97693.06;10582793;28;20114;-69
2023/06/23 07:38:35;;;;;;;3.15;0.60;;;;;;;26.94;50.51;97671.38;10581533;28;20481;-69
2023/06/23 07:43:55;;;;;;;1.83;0.50;;;;;;;29.13;44.64;97658.63;10582744;28;20046;-71
2023/06/23 07:49:16;;;;;;;0.88;0.52;;;;;;;28.95;42.41;97667.38;10581397;28;20124;-71
2023/06/23 07:54:37;;;;;;;3.17;0.70;;;;;;;29.03;42.89;97664.44;10581993;28;20119;-70
2023/06/23 07:59:57;;;;;;;1.65;0.50;;;;;;;30.52;39.98;97677.44;10581991;28;20343;-70
2023/06/23 08:05:18;;;;;;;5.35;0.90;;;;;;;29.39;40.50;97677.13;10581770;28;20134;-70
2023/06/23 08:10:39;;;;;;;1.77;0.70;;;;;;;28.56;42.78;97675.47;10581613;28;20047;-70
2023/06/23 08:16:02;;;;;;;1.88;0.30;;;;;;;29.74;41.52;97675.41;10581529;28;20048;-70
2023/06/23 08:21:23;;;;;;;2.22;0.40;;;;;;;30.46;39.12;97673.16;10581596;28;20074;-71
2023/06/23 08:26:44;;;;;;;0.80;0.45;;;;;;;30.60;38.44;97663.63;10552291;28;20097;-70
2023/06/23 08:32:06;;;;;;;2.40;0.40;;;;;;;30.42;38.37;97678.97;10569913;28;20060;-71
2023/06/23 08:37:27;;;;;;;1.77;0.40;;;;;;;30.31;37.82;97680.56;10574593;28;20059;-71
2023/06/23 08:42:50;;;;;;;3.30;0.50;;;;;;;29.95;38.61;97693.16;10589295;28;20160;-70
2023/06/23 08:48:13;;;;;;;1.03;0.50;;;;;;;28.54;39.95;97701.31;10589491;28;20169;-71
2023/06/23 08:53:34;;;;;;;1.98;0.50;;;;;;;27.10;43.50;97711.50;10589227;28;20040;-70
2023/06/23 08:58:55;;;;;;;3.95;0.75;;;;;;;26.05;45.31;97726.06;10559902;28;20121;-70
2023/06/23 09:04:15;;;;;;;2.05;0.88;;;;;;;25.60;47.82;97740.03;10569471;27;20122;-70
2023/06/23 09:09:36;;;;;;;2.05;0.90;;;;;;;26.15;47.05;97732.59;10631229;27;20043;-70
2023/06/23 09:14:57;;;;;;;1.30;0.80;;;;;;;27.30;45.43;97745.19;10615134;27;20145;-70
2023/06/23 09:20:17;;;;;;;1.30;0.98;;;;;;;28.51;42.59;97761.63;10601165;27;20127;-71
2023/06/23 09:25:39;;;;;;;1.50;1.00;;;;;;;28.32;40.97;97765.25;10615041;27;20080;-71
2023/06/23 09:31:10;;;;;;;3.10;1.05;;;;;;;27.58;41.90;97767.44;10600578;27;20108;-70
2023/06/23 09:36:33;;;;;;;2.40;1.02;;;;;;;27.42;42.46;97768.16;10630248;27;20046;-70
2023/06/23 09:41:55;;;;;;;4.97;2.97;;;;;;;27.18;43.30;97774.53;10599931;27;20047;-70
2023/06/23 09:47:17;;;;;;;3.35;1.45;;;;;;;26.36;43.84;97773.47;10600092;27;20454;-70
2023/06/23 09:52:38;;;;;;;1.92;1.23;;;;;;;25.30;46.17;97784.06;10613875;27;20070;-71
2023/06/23 09:57:59;;;;;;;2.47;1.30;;;;;;;24.94;46.99;97790.06;10629167;27;20085;-71
2023/06/23 10:03:20;;;;;;;3.00;1.55;;;;;;;25.28;47.04;97791.88;10597064;27;20104;-71
2023/06/23 10:08:41;;;;;;;2.10;1.58;;;;;;;25.77;46.11;97798.81;10570781;28;20046;-69
2023/06/23 10:14:06;;;;;;;3.28;1.27;;;;;;;25.59;45.13;97807.19;10585417;28;20050;-70
2023/06/23 10:19:26;;;;;;;2.10;1.50;;;;;;;26.25;45.57;97809.16;10571191;28;20112;-70
2023/06/23 10:24:51;;;;;;;1.98;1.20;;;;;;;27.89;42.58;97814.06;10542177;28;20131;-70
2023/06/23 10:30:12;;;;;;;2.45;1.35;;;;;;;26.64;41.71;97823.72;10569850;28;20485;-71
2023/06/23 10:35:33;;;;;;;2.08;1.65;;;;;;;25.39;43.95;97830.56;10555944;28;20122;-70
2023/06/23 10:40:55;;;;;;;4.25;1.60;;;;;;;24.68;44.71;97826.84;10541627;28;20545;-71
2023/06/23 10:46:15;;;;;;;2.17;1.58;;;;;;;24.23;46.97;97837.63;10584315;28;20465;-69
2023/06/23 10:51:36;;;;;;;3.92;1.83;;;;;;;24.91;45.76;97845.72;10584450;28;20064;-69
2023/06/23 10:56:57;;;;;;;1.98;1.60;;;;;;;24.71;45.53;97840.47;10553850;28;20111;-71
2023/06/23 11:02:18;;;;;;;2.20;1.33;;;;;;;23.93;46.90;97849.22;10568955;28;20039;-70
2023/06/23 11:08:01;;;;;;;2.95;1.40;;;;;;;23.82;47.80;97848.34;10565106;28;20429;-70
2023/06/23 11:13:25;;;;;;;5.05;1.50;;;;;;;23.65;47.95;97855.91;10582310;28;20120;-70
2023/06/23 11:18:49;;;;;;;3.22;1.30;;;;;;;24.23;48.41;97852.59;10568342;28;20561;-69
2023/06/23 11:24:14;;;;;;;3.45;1.70;;;;;;;25.58;46.68;97852.19;10582954;28;20390;-70
2023/06/23 11:29:35;;;;;;;2.08;1.77;;;;;;;26.17;44.04;97849.16;10581838;28;20044;-70
2023/06/23 11:34:57;;;;;;;3.63;1.70;;;;;;;25.88;44.08;97853.94;10581957;28;20438;-70
2023/06/23 11:40:19;;;;;;;2.78;1.73;;;;;;;25.10;45.42;97863.81;10553286;28;20054;-70
2023/06/23 11:45:56;;;;;;;2.47;1.57;;;;;;;25.93;43.39;97856.09;10567391;28;20078;-70
2023/06/23 11:51:17;;;;;;;3.85;1.63;;;;;;;25.99;42.94;97861.16;10568003;28;20748;-71
2023/06/23 11:56:41;;;;;;;2.77;1.03;;;;;;;25.49;43.07;97867.09;10567026;28;20044;-70
2023/06/23 12:02:04;;;;;;;2.30;0.80;;;;;;;24.15;44.73;97863.88;10582050;28;20047;-70
2023/06/23 12:07:29;;;;;;;3.20;0.60;;;;;;;23.38;46.19;97859.66;10618329;27;20055;-69
2023/06/23 12:12:52;;;;;;;1.60;0.88;;;;;;;23.04;47.38;97854.72;10566780;27;20112;-70
2023/06/23 12:18:13;;;;;;;1.13;0.60;;;;;;;23.13;47.71;97844.94;10594436;27;20155;-70
2023/06/23 12:23:33;;;;;;;5.15;0.80;;;;;;;23.22;47.70;97850.78;10579839;27;20140;-69
2023/06/23 12:29:08;;;;;;;2.28;0.50;;;;;;;23.36;47.60;97851.06;10623794;28;20043;-70
2023/06/23 12:34:32;;;;;;;1.13;0.60;;;;;;;23.63;48.04;97860.84;10594406;28;20077;-71
2023/06/23 12:39:52;;;;;;;2.60;0.60;;;;;;;23.91;47.06;97855.63;10623852;28;20114;-69
2023/06/23 12:45:14;;;;;;;5.03;0.80;;;;;;;23.94;46.93;97847.84;10608437;28;20114;-70
2023/06/23 12:50:37;;;;;;;2.05;0.40;;;;;;;23.88;46.43;97870.53;10608137;28;20160;-69
2023/06/23 12:55:59;;;;;;;1.10;0.30;;;;;;;23.79;46.96;97863.25;10607775;28;20216;-70
2023/06/23 13:01:19;;;;;;;2.35;0.50;;;;;;;24.16;45.91;97862.47;10607984;28;20552;-70
2023/06/23 13:06:40;;;;;;;2.25;0.40;;;;;;;23.94;46.11;97873.50;10565134;28;20128;-70
2023/06/23 13:12:01;;;;;;;1.67;0.30;;;;;;;23.92;46.06;97874.16;10579591;28;20092;-70
2023/06/23 13:17:21;;;;;;;2.08;0.40;;;;;;;23.04;47.16;97879.63;10581769;28;20067;-70
2023/06/23 13:22:42;;;;;;;2.90;0.50;;;;;;;22.15;49.37;97887.56;10587378;28;20077;-70
2023/06/23 13:28:02;;;;;;;1.88;0.50;;;;;;;21.65;50.82;97887.00;10587358;28;20043;-67
2023/06/23 13:33:24;;;;;;;0.70;0.40;;;;;;;21.32;52.64;97903.16;10586780;28;20063;-68
2023/06/23 13:38:46;;;;;;;1.03;0.30;;;;;;;21.17;53.13;97897.72;10572598;28;20118;-68
2023/06/23 13:44:06;;;;;;;0.77;0.32;;;;;;;21.38;53.58;97903.31;10586748;28;20481;-69
2023/06/23 13:49:27;;;;;;;0.82;0.30;;;;;;;21.73;52.91;97895.75;10586158;28;20063;-68
2023/06/23 13:54:47;;;;;;;1.13;0.50;;;;;;;21.80;52.46;97899.44;10585961;28;20063;-68
2023/06/23 14:00:09;;;;;;;1.08;0.38;;;;;;;22.20;52.19;97928.22;10571317;28;20083;-68
2023/06/23 14:05:30;;;;;;;2.20;0.50;;;;;;;22.73;51.75;97921.63;10556780;28;20083;-68
2023/06/23 14:11:11;;;;;;;1.17;0.40;;;;;;;24.05;49.38;97920.00;10570753;28;20039;-68
2023/06/23 14:16:33;;;;;;;2.53;0.30;;;;;;;25.08;45.95;97938.00;10557082;28;20050;-68
2023/06/23 14:21:55;;;;;;;1.00;0.40;;;;;;;24.11;45.81;97926.53;10556733;28;20063;-69
2023/06/23 14:27:16;;;;;;;2.42;0.40;;;;;;;23.03;46.96;97932.25;10570196;28;20073;-68
2023/06/23 14:32:37;;;;;;;3.10;0.50;;;;;;;22.06;49.11;97934.22;10570125;28;20545;-68
2023/06/23 14:37:58;;;;;;;0.98;0.40;;;;;;;21.85;50.73;97935.81;10585008;28;20401;-68
2023/06/23 14:43:19;;;;;;;0.88;0.40;;;;;;;21.97;51.22;97927.59;10556043;28;20063;-68
2023/06/23 14:48:41;;;;;;;2.08;0.52;;;;;;;22.62;50.53;97930.63;10569676;28;20043;-68
2023/06/23 14:54:02;;;;;;;1.50;0.32;;;;;;;22.78;49.59;97928.88;10569103;28;20055;-68
2023/06/23 14:59:22;;;;;;;1.95;0.40;;;;;;;22.32;50.29;97936.31;10569108;28;20120;-68
2023/06/23 15:04:44;;;;;;;1.63;0.20;;;;;;;21.96;51.16;97936.81;10583073;27;20472;-68
2023/06/23 15:10:05;;;;;;;1.67;0.30;;;;;;;21.70;51.94;97945.34;10626513;27;20480;-68
2023/06/23 15:15:26;;;;;;;0.63;0.20;;;;;;;21.61;52.20;97943.69;10610676;27;20110;-69
2023/06/23 15:20:46;;;;;;;0.30;0.20;;;;;;;21.48;52.22;97941.91;10610435;27;20448;-68
2023/06/23 15:26:07;;;;;;;0.38;0.20;;;;;;;21.58;52.15;97933.66;10625748;27;20074;-68
2023/06/23 15:31:28;;;;;;;0.52;0.20;;;;;;;21.76;52.41;97919.22;10596297;27;20404;-69
2023/06/23 15:36:49;;;;;;;0.68;0.30;;;;;;;21.67;52.50;97923.97;10596025;27;20066;-69
2023/06/23 15:42:10;;;;;;;0.93;0.30;;;;;;;21.65;52.59;97916.13;10624701;27;20139;-68
2023/06/23 15:47:31;;;;;;;2.25;0.40;;;;;;;21.51;53.02;97932.03;10609548;27;20229;-67
2023/06/23 15:52:51;;;;;;;1.00;0.32;;;;;;;21.27;53.88;97921.47;10595014;27;20046;-69
2023/06/23 15:58:12;;;;;;;0.60;0.30;;;;;;;20.96;53.91;97919.13;10624363;27;20511;-69
2023/06/23 16:03:33;;;;;;;1.20;0.30;;;;;;;20.77;55.30;97921.41;10604476;27;20079;-67
2023/06/23 16:08:54;;;;;;;1.02;0.20;;;;;;;20.64;56.02;97916.75;10566605;28;20520;-69
2023/06/23 16:14:15;;;;;;;2.20;0.22;;;;;;;20.63;56.16;97917.41;10581560;28;20067;-69
2023/06/23 16:19:36;;;;;;;0.70;0.20;;;;;;;20.56;56.69;97914.41;10581380;28;20044;-68
2023/06/23 16:24:57;;;;;;;0.50;0.20;;;;;;;20.82;56.72;97914.47;10552334;28;20094;-69
2023/06/23 16:30:18;;;;;;;3.22;0.20;;;;;;;20.71;56.10;97907.03;10581192;28;20043;-69
2023/06/23 16:35:38;;;;;;;0.70;0.20;;;;;;;20.70;57.09;97911.25;10565945;28;20149;-68
2023/06/23 16:40:59;;;;;;;0.38;0.10;;;;;;;20.80;56.82;97919.34;10551802;28;20051;-69
2023/06/23 16:46:20;;;;;;;1.20;0.10;;;;;;;20.75;56.86;97929.13;10565560;28;20044;-69
2023/06/23 16:51:40;;;;;;;1.73;0.40;;;;;;;20.46;57.49;97945.28;10582079;28;20071;-69
2023/06/23 16:57:02;;;;;;;0.10;0.10;;;;;;;20.33;57.85;97948.34;10559725;28;20104;-68
2023/06/23 17:02:22;;;;;;;0.20;0.10;;;;;;;20.04;58.42;97964.41;10589090;28;20469;-69
2023/06/23 17:07:43;;;;;;;1.98;0.10;;;;;;;20.04;58.64;97961.56;10570523;28;20059;-69
2023/06/23 17:13:03;;;;;;;0.57;0.10;;;;;;;20.00;59.02;97969.94;10573522;28;20042;-69
2023/06/23 17:18:24;;;;;;;1.42;0.00;;;;;;;19.94;59.13;97966.88;10587341;28;20067;-69
2023/06/23 17:23:45;;;;;;;0.55;0.00;;;;;;;19.78;59.65;97989.69;10587371;28;20043;-69
2023/06/23 17:29:05;;;;;;;0.10;0.00;;;;;;;19.75;59.79;97978.97;10558585;28;20056;-69
2023/06/23 17:34:26;;;;;;;3.10;0.10;;;;;;;19.65;60.03;97970.84;10586727;28;20112;-68
2023/06/23 17:39:47;;;;;;;0.00;0.00;;;;;;;19.77;60.02;97971.25;10572649;28;20502;-69
2023/06/23 17:45:08;;;;;;;0.65;0.00;;;;;;;19.83;60.46;97973.59;10587420;28;20055;-69
2023/06/23 17:50:28;;;;;;;0.38;0.00;;;;;;;19.87;59.93;97979.38;10572106;28;20097;-69
2023/06/23 17:55:49;;;;;;;2.05;0.03;;;;;;;19.88;60.06;97980.84;10585941;28;20063;-69
2023/06/23 18:01:10;;;;;;;0.50;0.00;;;;;;;19.94;60.27;97983.88;10585605;28;20040;-69
2023/06/23 18:06:30;;;;;;;0.10;0.00;;;;;;;19.73;59.78;97988.84;10614640;27;20098;-68
2023/06/23 18:11:51;;;;;;;0.52;0.00;;;;;;;19.75;59.40;97995.97;10612551;27;20062;-69
2023/06/23 18:17:12;;;;;;;0.10;0.00;;;;;;;19.69;59.04;98019.13;10628892;27;20065;-68
2023/06/23 18:22:33;;;;;;;2.58;0.00;;;;;;;19.62;58.90;98006.84;10598856;27;20475;-68
2023/06/23 18:27:55;;;;;;;0.47;0.00;;;;;;;19.45;59.10;97999.84;10613112;27;20397;-69
2023/06/23 18:33:15;;;;;;;0.00;0.00;;;;;;;19.43;59.27;98016.03;10612719;27;20066;-68
2023/06/23 18:38:36;;;;;;;1.95;0.00;;;;;;;19.32;59.47;98019.88;10627885;27;20183;-69
2023/06/23 18:43:57;;;;;;;0.10;0.00;;;;;;;19.17;59.55;98027.81;10627624;27;20073;-69
2023/06/23 18:49:17;;;;;;;0.22;0.00;;;;;;;19.14;59.87;98017.06;10627354;27;20114;-68
2023/06/23 18:54:38;;;;;;;0.20;0.00;;;;;;;19.12;60.01;98019.81;10627318;27;20497;-69
2023/06/23 19:00:05;;;;;;;0.08;0.00;;;;;;;18.97;60.25;98015.72;10627034;27;20485;-68
2023/06/23 19:05:25;;;;;;;0.30;0.00;;;;;;;18.95;60.56;98021.28;10591962;27;20493;-69
2023/06/23 19:10:46;;;;;;;0.05;0.00;;;;;;;18.96;60.34;98019.19;10583822;28;20071;-69
2023/06/23 19:16:07;;;;;;;0.30;0.00;;;;;;;18.83;60.39;98026.47;10567583;28;20123;-69
2023/06/23 19:21:27;;;;;;;0.00;0.00;;;;;;;18.74;60.63;98033.19;10568175;28;20063;-69
2023/06/23 19:26:48;;;;;;;0.13;0.00;;;;;;;18.70;60.57;98041.50;10553925;28;20110;-67
2023/06/23 19:32:08;;;;;;;0.20;0.10;;;;;;;18.58;60.83;98048.06;10583318;28;20114;-68
2023/06/23 19:37:29;;;;;;;0.50;0.20;;;;;;;18.56;61.31;98048.00;10567550;28;20055;-68
2023/06/23 19:42:50;;;;;;;0.00;0.00;;;;;;;18.57;61.60;98049.44;10567522;28;20063;-68
2023/06/23 19:48:11;;;;;;;1.00;0.00;;;;;;;18.62;61.17;98049.59;10582475;28;20051;-68
2023/06/23 19:53:32;;;;;;;0.20;0.00;;;;;;;18.50;61.35;98061.88;10552868;28;20496;-68
2023/06/23 19:58:52;;;;;;;0.10;0.00;;;;;;;18.48;61.62;98069.56;10566576;28;20067;-69
2023/06/23 20:04:15;;;;;;;0.43;0.00;;;;;;;18.41;61.81;98071.38;10562550;27;20516;-69
2023/06/23 20:09:36;;;;;;;0.30;0.10;;;;;;;18.30;62.10;98075.88;10609660;27;20044;-69
2023/06/23 20:14:56;;;;;;;0.05;0.00;;;;;;;18.33;62.44;98085.16;10594459;27;20076;-70
2023/06/23 20:20:17;;;;;;;0.60;0.00;;;;;;;18.38;62.67;98092.47;10608950;27;20085;-69
2023/06/23 20:25:38;;;;;;;0.10;0.00;;;;;;;18.34;62.82;98092.31;10608578;27;20400;-70
2023/06/23 20:30:58;;;;;;;0.20;0.00;;;;;;;18.32;63.12;98109.16;10623999;28;20039;-69
2023/06/23 20:36:19;;;;;;;2.55;0.00;;;;;;;18.33;63.69;98099.28;10623696;28;20122;-69
2023/06/23 20:41:40;;;;;;;0.10;0.00;;;;;;;18.25;63.79;98082.75;10623607;28;20043;-69
2023/06/23 20:47:01;;;;;;;0.15;0.00;;;;;;;18.08;65.00;98091.88;10608161;28;20067;-70
2023/06/23 20:52:21;;;;;;;2.28;0.00;;;;;;;17.93;66.15;98104.66;10593747;28;20075;-69
2023/06/23 20:57:43;;;;;;;0.00;0.00;;;;;;;17.77;67.32;98100.38;10623521;28;20063;-69
2023/06/23 21:03:04;;;;;;;0.60;0.00;;;;;;;17.64;68.20;98113.91;10607988;28;20062;-69
2023/06/23 21:08:25;;;;;;;0.47;0.00;;;;;;;17.49;69.38;98120.28;10594248;28;20070;-70
2023/06/23 21:13:46;;;;;;;0.17;0.00;;;;;;;17.34;71.16;98140.72;10593630;28;20070;-71
2023/06/23 21:19:06;;;;;;;0.30;0.10;;;;;;;17.13;71.52;98144.66;10607718;28;20071;-70
2023/06/23 21:24:27;;;;;;;0.20;0.10;;;;;;;16.97;73.30;98157.97;10622704;28;20040;-70
2023/06/23 21:29:48;;;;;;;0.00;0.00;;;;;;;16.91;74.49;98174.59;10607640;28;20412;-70
2023/06/23 21:35:11;;;;;;;0.10;0.00;;;;;;;16.73;75.14;98183.59;10593332;28;20046;-71
2023/06/23 21:40:32;;;;;;;0.00;0.00;;;;;;;16.71;76.58;98200.41;10613045;27;20508;-69
2023/06/23 21:45:54;;;;;;;0.00;0.00;;;;;;;16.63;77.20;98211.25;10630231;27;20067;-71
2023/06/23 21:51:14;;;;;;;0.00;0.00;;;;;;;16.55;77.16;98205.19;10600397;27;20050;-70
2023/06/23 21:56:35;;;;;;;0.00;0.00;;;;;;;16.42;77.64;98215.13;10614190;27;20091;-70
2023/06/23 22:01:56;;;;;;;0.00;0.00;;;;;;;16.35;78.91;98237.94;10613884;27;20110;-71
2023/06/23 22:07:17;;;;;;;0.00;0.00;;;;;;;16.30;79.64;98242.63;10585311;28;20043;-71
2023/06/23 22:12:37;;;;;;;0.00;0.00;;;;;;;16.25;79.91;98249.41;10585402;28;20075;-70
2023/06/23 22:17:58;;;;;;;0.63;0.00;;;;;;;16.25;79.81;98266.31;10570782;28;20114;-71
2023/06/23 22:23:19;;;;;;;0.00;0.00;;;;;;;16.19;80.69;98266.72;10565582;28;20162;-69
2023/06/23 22:28:41;;;;;;;1.40;0.00;;;;;;;16.10;80.88;98281.69;10558188;28;20120;-69
2023/06/23 22:34:02;;;;;;;0.95;0.05;;;;;;;16.05;81.46;98288.47;10524988;28;20039;-71
2023/06/23 22:39:22;;;;;;;0.10;0.00;;;;;;;16.12;81.59;98290.28;10541703;28;20458;-70
2023/06/23 22:44:45;;;;;;;0.20;0.00;;;;;;;16.15;81.53;98294.66;10541994;28;20520;-71
2023/06/23 22:50:08;;;;;;;2.70;0.07;;;;;;;16.31;81.79;98300.44;10546063;28;20035;-68
2023/06/23 22:55:32;;;;;;;0.20;0.10;;;;;;;16.29;82.36;98315.13;10574448;28;20066;-70
2023/06/23 23:00:53;;;;;;;0.40;0.20;;;;;;;16.18;81.86;98315.94;10553097;28;20056;-68
2023/06/23 23:06:13;;;;;;;1.10;0.30;;;;;;;16.14;82.19;98321.38;10555218;28;20290;-71
2023/06/23 23:11:34;;;;;;;0.85;0.40;;;;;;;16.09;81.97;98325.31;10498228;28;20063;-71
2023/06/23 23:16:55;;;;;;;1.75;0.40;;;;;;;16.08;81.70;98323.84;10524623;28;20040;-68
2023/06/23 23:22:19;;;;;;;0.50;0.30;;;;;;;15.86;82.14;98328.25;10529390;28;20032;-69
2023/06/23 23:27:40;;;;;;;0.88;0.50;;;;;;;15.84;82.38;98328.13;10555804;28;20097;-70
2023/06/23 23:33:02;;;;;;;1.98;0.55;;;;;;;15.70;82.55;98344.94;10514678;28;20089;-71
2023/06/23 23:38:23;;;;;;;1.17;0.50;;;;;;;15.76;83.14;98341.75;10510403;28;20093;-71
2023/06/23 23:43:44;;;;;;;0.80;0.55;;;;;;;15.78;82.35;98334.13;10546717;28;20040;-70
2023/06/23 23:49:05;;;;;;;3.08;0.77;;;;;;;15.67;82.65;98341.28;10542929;28;20399;-70
2023/06/23 23:54:25;;;;;;;0.80;0.40;;;;;;;15.69;82.35;98340.66;10525225;28;20490;-69
2023/06/23 23:59:46;;;;;;;2.00;0.85;;;;;;;15.60;82.06;98344.31;10534055;28;20452;-70
